sensor_id;sensor_type;location;lat;lon;timestamp;temperature;humidity
10282;DHT22;5186;59.472;18.048;2023-04-19T00:00:59;4.70;99.90
10282;DHT22;5186;59.472;18.048;2023-04-19T00:03:26;4.70;99.90
10282;DHT22;5186;59.472;18.048;2023-04-19T00:05:52;4.70;99.90
10282;DHT22;5186;59.472;18.048;2023-04-19T00:08:24;4.60;99.90
10282;DHT22;5186;59.472;18.048;2023-04-19T00:10:50;4.60;99.90
10282;DHT22;5186;59.472;18.048;2023-04-19T00:13:15;4.60;99.90
10282;DHT22;5186;59.472;18.048;2023-04-19T00:15:41;4.60;99.90
10282;DHT22;5186;59.472;18.048;2023-04-19T00:18:07;4.50;99.90
10282;DHT22;5186;59.472;18.048;2023-04-19T00:20:32;4.50;99.90
10282;DHT22;5186;59.472;18.048;2023-04-19T00:22:58;4.40;99.90
10282;DHT22;5186;59.472;18.048;2023-04-19T00:25:24;4.40;99.90
10282;DHT22;5186;59.472;18.048;2023-04-19T00:27:49;4.40;99.90
10282;DHT22;5186;59.472;18.048;2023-04-19T00:30:15;4.40;99.90
10282;DHT22;5186;59.472;18.048;2023-04-19T00:32:41;4.30;99.90
10282;DHT22;5186;59.472;18.048;2023-04-19T00:35:07;4.30;99.90
10282;DHT22;5186;59.472;18.048;2023-04-19T00:37:32;4.30;99.90
10282;DHT22;5186;59.472;18.048;2023-04-19T00:39:58;4.20;99.90
10282;DHT22;5186;59.472;18.048;2023-04-19T00:42:23;4.30;99.90
10282;DHT22;5186;59.472;18.048;2023-04-19T00:44:49;4.20;99.90
10282;DHT22;5186;59.472;18.048;2023-04-19T00:47:15;4.20;99.90
10282;DHT22;5186;59.472;18.048;2023-04-19T00:49:41;4.20;99.90
10282;DHT22;5186;59.472;18.048;2023-04-19T00:52:07;4.20;99.90
10282;DHT22;5186;59.472;18.048;2023-04-19T00:54:32;4.10;99.90
10282;DHT22;5186;59.472;18.048;2023-04-19T00:56:58;4.10;99.90
10282;DHT22;5186;59.472;18.048;2023-04-19T00:59:24;4.10;99.90
10282;DHT22;5186;59.472;18.048;2023-04-19T01:01:50;4.00;99.90
10282;DHT22;5186;59.472;18.048;2023-04-19T01:04:15;4.00;99.90
10282;DHT22;5186;59.472;18.048;2023-04-19T01:06:41;3.90;99.90
10282;DHT22;5186;59.472;18.048;2023-04-19T01:09:07;3.90;99.90
10282;DHT22;5186;59.472;18.048;2023-04-19T01:11:33;3.90;99.90
10282;DHT22;5186;59.472;18.048;2023-04-19T01:13:59;3.90;99.90
10282;DHT22;5186;59.472;18.048;2023-04-19T01:16:25;3.90;99.90
10282;DHT22;5186;59.472;18.048;2023-04-19T01:18:51;3.80;99.90
10282;DHT22;5186;59.472;18.048;2023-04-19T01:21:17;3.80;99.90
10282;DHT22;5186;59.472;18.048;2023-04-19T01:23:43;3.80;99.90
10282;DHT22;5186;59.472;18.048;2023-04-19T01:26:08;3.80;99.90
10282;DHT22;5186;59.472;18.048;2023-04-19T01:28:34;3.70;99.90
10282;DHT22;5186;59.472;18.048;2023-04-19T01:31:00;3.70;99.90
10282;DHT22;5186;59.472;18.048;2023-04-19T01:33:25;3.70;99.90
10282;DHT22;5186;59.472;18.048;2023-04-19T01:35:51;3.60;99.90
10282;DHT22;5186;59.472;18.048;2023-04-19T01:38:17;3.60;99.90
10282;DHT22;5186;59.472;18.048;2023-04-19T01:40:43;3.50;99.90
10282;DHT22;5186;59.472;18.048;2023-04-19T01:43:11;3.60;99.90
10282;DHT22;5186;59.472;18.048;2023-04-19T01:45:37;3.50;99.90
10282;DHT22;5186;59.472;18.048;2023-04-19T01:48:03;3.50;99.90
10282;DHT22;5186;59.472;18.048;2023-04-19T01:50:29;3.50;99.90
10282;DHT22;5186;59.472;18.048;2023-04-19T01:52:55;3.40;99.90
10282;DHT22;5186;59.472;18.048;2023-04-19T01:55:21;3.40;99.90
10282;DHT22;5186;59.472;18.048;2023-04-19T01:57:47;3.40;99.90
10282;DHT22;5186;59.472;18.048;2023-04-19T02:00:12;3.30;99.90
10282;DHT22;5186;59.472;18.048;2023-04-19T02:02:39;3.30;99.90
10282;DHT22;5186;59.472;18.048;2023-04-19T02:05:06;3.30;99.90
10282;DHT22;5186;59.472;18.048;2023-04-19T02:07:32;3.30;99.90
10282;DHT22;5186;59.472;18.048;2023-04-19T02:09:57;3.30;99.90
10282;DHT22;5186;59.472;18.048;2023-04-19T02:12:26;3.30;99.90
10282;DHT22;5186;59.472;18.048;2023-04-19T02:14:56;3.20;99.90
10282;DHT22;5186;59.472;18.048;2023-04-19T02:17:22;3.20;99.90
10282;DHT22;5186;59.472;18.048;2023-04-19T02:19:48;3.20;99.90
10282;DHT22;5186;59.472;18.048;2023-04-19T02:22:13;3.20;99.90
10282;DHT22;5186;59.472;18.048;2023-04-19T02:24:39;3.20;99.90
10282;DHT22;5186;59.472;18.048;2023-04-19T02:27:04;3.20;99.90
10282;DHT22;5186;59.472;18.048;2023-04-19T02:29:32;3.20;99.90
10282;DHT22;5186;59.472;18.048;2023-04-19T02:31:57;3.20;99.90
10282;DHT22;5186;59.472;18.048;2023-04-19T02:34:23;3.10;99.90
10282;DHT22;5186;59.472;18.048;2023-04-19T02:36:48;3.10;99.90
10282;DHT22;5186;59.472;18.048;2023-04-19T02:39:14;3.10;99.90
10282;DHT22;5186;59.472;18.048;2023-04-19T02:41:41;3.00;99.90
10282;DHT22;5186;59.472;18.048;2023-04-19T02:44:06;3.00;99.90
10282;DHT22;5186;59.472;18.048;2023-04-19T02:46:33;2.90;99.90
10282;DHT22;5186;59.472;18.048;2023-04-19T02:49:00;2.90;99.90
10282;DHT22;5186;59.472;18.048;2023-04-19T02:51:25;2.80;99.90
10282;DHT22;5186;59.472;18.048;2023-04-19T02:53:51;2.80;99.90
10282;DHT22;5186;59.472;18.048;2023-04-19T02:56:17;2.90;99.90
10282;DHT22;5186;59.472;18.048;2023-04-19T02:58:43;2.80;99.90
10282;DHT22;5186;59.472;18.048;2023-04-19T03:01:09;2.80;99.90
10282;DHT22;5186;59.472;18.048;2023-04-19T03:03:34;2.90;99.90
10282;DHT22;5186;59.472;18.048;2023-04-19T03:06:00;2.80;99.90
10282;DHT22;5186;59.472;18.048;2023-04-19T03:08:26;2.80;99.90
10282;DHT22;5186;59.472;18.048;2023-04-19T03:10:52;2.70;99.90
10282;DHT22;5186;59.472;18.048;2023-04-19T03:13:17;2.70;99.90
10282;DHT22;5186;59.472;18.048;2023-04-19T03:15:43;2.70;99.90
10282;DHT22;5186;59.472;18.048;2023-04-19T03:18:08;2.60;99.90
10282;DHT22;5186;59.472;18.048;2023-04-19T03:20:34;2.60;99.90
10282;DHT22;5186;59.472;18.048;2023-04-19T03:23:00;2.60;99.90
10282;DHT22;5186;59.472;18.048;2023-04-19T03:25:25;2.50;99.90
10282;DHT22;5186;59.472;18.048;2023-04-19T03:27:51;2.60;99.90
10282;DHT22;5186;59.472;18.048;2023-04-19T03:30:17;2.60;99.90
10282;DHT22;5186;59.472;18.048;2023-04-19T03:32:43;2.60;99.90
10282;DHT22;5186;59.472;18.048;2023-04-19T03:35:09;2.60;99.90
10282;DHT22;5186;59.472;18.048;2023-04-19T03:37:34;2.60;99.90
10282;DHT22;5186;59.472;18.048;2023-04-19T03:40:00;2.50;99.90
10282;DHT22;5186;59.472;18.048;2023-04-19T03:42:26;2.60;99.90
10282;DHT22;5186;59.472;18.048;2023-04-19T03:44:51;2.60;99.90
10282;DHT22;5186;59.472;18.048;2023-04-19T03:47:17;2.50;99.90
10282;DHT22;5186;59.472;18.048;2023-04-19T03:49:42;2.50;99.90
10282;DHT22;5186;59.472;18.048;2023-04-19T03:52:08;2.50;99.90
10282;DHT22;5186;59.472;18.048;2023-04-19T03:54:34;2.50;99.90
10282;DHT22;5186;59.472;18.048;2023-04-19T03:56:59;2.50;99.90
10282;DHT22;5186;59.472;18.048;2023-04-19T03:59:25;2.50;99.90
10282;DHT22;5186;59.472;18.048;2023-04-19T04:01:51;2.50;99.90
10282;DHT22;5186;59.472;18.048;2023-04-19T04:04:16;2.50;99.90
10282;DHT22;5186;59.472;18.048;2023-04-19T04:06:42;2.50;99.90
10282;DHT22;5186;59.472;18.048;2023-04-19T04:09:07;2.50;99.90
10282;DHT22;5186;59.472;18.048;2023-04-19T04:11:33;2.50;99.90
10282;DHT22;5186;59.472;18.048;2023-04-19T04:13:58;2.50;99.90
10282;DHT22;5186;59.472;18.048;2023-04-19T04:16:24;2.50;99.90
10282;DHT22;5186;59.472;18.048;2023-04-19T04:18:49;2.60;99.90
10282;DHT22;5186;59.472;18.048;2023-04-19T04:21:15;2.70;99.90
10282;DHT22;5186;59.472;18.048;2023-04-19T04:23:41;2.70;99.90
10282;DHT22;5186;59.472;18.048;2023-04-19T04:26:06;2.70;99.90
10282;DHT22;5186;59.472;18.048;2023-04-19T04:28:34;2.80;99.90
10282;DHT22;5186;59.472;18.048;2023-04-19T04:31:00;2.90;99.90
10282;DHT22;5186;59.472;18.048;2023-04-19T04:33:28;2.90;99.90
10282;DHT22;5186;59.472;18.048;2023-04-19T04:35:54;3.00;99.90
10282;DHT22;5186;59.472;18.048;2023-04-19T04:38:20;3.00;99.90
10282;DHT22;5186;59.472;18.048;2023-04-19T04:40:50;3.10;99.90
10282;DHT22;5186;59.472;18.048;2023-04-19T04:43:22;3.10;99.90
10282;DHT22;5186;59.472;18.048;2023-04-19T04:45:48;3.20;99.90
10282;DHT22;5186;59.472;18.048;2023-04-19T04:48:13;3.20;99.90
10282;DHT22;5186;59.472;18.048;2023-04-19T04:50:39;3.30;99.90
10282;DHT22;5186;59.472;18.048;2023-04-19T04:53:05;3.30;99.90
10282;DHT22;5186;59.472;18.048;2023-04-19T04:55:31;3.40;99.90
10282;DHT22;5186;59.472;18.048;2023-04-19T04:57:57;3.40;99.90
10282;DHT22;5186;59.472;18.048;2023-04-19T05:00:22;3.50;99.90
10282;DHT22;5186;59.472;18.048;2023-04-19T05:02:48;3.60;99.90
10282;DHT22;5186;59.472;18.048;2023-04-19T05:05:14;3.60;99.90
10282;DHT22;5186;59.472;18.048;2023-04-19T05:07:39;3.70;99.90
10282;DHT22;5186;59.472;18.048;2023-04-19T05:10:06;3.70;99.90
10282;DHT22;5186;59.472;18.048;2023-04-19T05:12:32;3.80;99.90
10282;DHT22;5186;59.472;18.048;2023-04-19T05:14:57;3.90;99.90
10282;DHT22;5186;59.472;18.048;2023-04-19T05:17:23;3.90;99.90
10282;DHT22;5186;59.472;18.048;2023-04-19T05:19:49;4.00;99.90
10282;DHT22;5186;59.472;18.048;2023-04-19T05:22:15;4.10;99.90
10282;DHT22;5186;59.472;18.048;2023-04-19T05:24:41;4.20;99.90
10282;DHT22;5186;59.472;18.048;2023-04-19T05:27:06;4.30;99.90
10282;DHT22;5186;59.472;18.048;2023-04-19T05:29:32;4.30;99.90
10282;DHT22;5186;59.472;18.048;2023-04-19T05:31:57;4.40;99.90
10282;DHT22;5186;59.472;18.048;2023-04-19T05:34:23;4.50;99.90
10282;DHT22;5186;59.472;18.048;2023-04-19T05:36:49;4.50;99.90
10282;DHT22;5186;59.472;18.048;2023-04-19T05:39:15;4.60;99.90
10282;DHT22;5186;59.472;18.048;2023-04-19T05:41:41;4.70;99.90
10282;DHT22;5186;59.472;18.048;2023-04-19T05:44:07;4.70;99.90
10282;DHT22;5186;59.472;18.048;2023-04-19T05:46:32;4.80;99.90
10282;DHT22;5186;59.472;18.048;2023-04-19T05:48:58;4.90;99.90
10282;DHT22;5186;59.472;18.048;2023-04-19T05:51:24;5.00;99.90
10282;DHT22;5186;59.472;18.048;2023-04-19T05:53:49;5.00;99.90
10282;DHT22;5186;59.472;18.048;2023-04-19T05:56:15;5.10;99.90
10282;DHT22;5186;59.472;18.048;2023-04-19T05:58:40;5.20;99.90
10282;DHT22;5186;59.472;18.048;2023-04-19T06:01:06;5.30;99.90
10282;DHT22;5186;59.472;18.048;2023-04-19T06:03:32;5.30;99.90
10282;DHT22;5186;59.472;18.048;2023-04-19T06:05:58;5.40;99.90
10282;DHT22;5186;59.472;18.048;2023-04-19T06:08:23;5.50;99.90
10282;DHT22;5186;59.472;18.048;2023-04-19T06:10:50;5.60;99.90
10282;DHT22;5186;59.472;18.048;2023-04-19T06:13:15;5.70;99.90
10282;DHT22;5186;59.472;18.048;2023-04-19T06:15:41;5.70;99.90
10282;DHT22;5186;59.472;18.048;2023-04-19T06:18:07;5.70;99.90
10282;DHT22;5186;59.472;18.048;2023-04-19T06:20:36;5.80;99.90
10282;DHT22;5186;59.472;18.048;2023-04-19T06:23:02;5.90;99.90
10282;DHT22;5186;59.472;18.048;2023-04-19T06:25:28;5.90;99.90
10282;DHT22;5186;59.472;18.048;2023-04-19T06:27:53;6.00;99.90
10282;DHT22;5186;59.472;18.048;2023-04-19T06:30:19;6.10;99.90
10282;DHT22;5186;59.472;18.048;2023-04-19T06:32:45;6.10;99.90
10282;DHT22;5186;59.472;18.048;2023-04-19T06:35:10;6.20;99.90
10282;DHT22;5186;59.472;18.048;2023-04-19T06:37:36;6.30;99.90
10282;DHT22;5186;59.472;18.048;2023-04-19T06:40:02;6.40;99.90
10282;DHT22;5186;59.472;18.048;2023-04-19T06:42:29;6.40;99.90
10282;DHT22;5186;59.472;18.048;2023-04-19T06:44:55;6.50;99.90
10282;DHT22;5186;59.472;18.048;2023-04-19T06:47:21;6.50;99.90
10282;DHT22;5186;59.472;18.048;2023-04-19T06:49:47;6.60;99.90
10282;DHT22;5186;59.472;18.048;2023-04-19T06:52:13;6.70;99.90
10282;DHT22;5186;59.472;18.048;2023-04-19T06:54:38;6.70;99.90
10282;DHT22;5186;59.472;18.048;2023-04-19T06:57:04;6.90;99.90
10282;DHT22;5186;59.472;18.048;2023-04-19T06:59:29;6.90;99.90
10282;DHT22;5186;59.472;18.048;2023-04-19T07:01:56;7.00;99.90
10282;DHT22;5186;59.472;18.048;2023-04-19T07:04:23;7.10;99.90
10282;DHT22;5186;59.472;18.048;2023-04-19T07:06:49;7.20;99.90
10282;DHT22;5186;59.472;18.048;2023-04-19T07:09:15;7.20;99.90
10282;DHT22;5186;59.472;18.048;2023-04-19T07:11:40;7.30;99.90
10282;DHT22;5186;59.472;18.048;2023-04-19T07:14:06;7.40;99.90
10282;DHT22;5186;59.472;18.048;2023-04-19T07:16:32;7.50;99.90
10282;DHT22;5186;59.472;18.048;2023-04-19T07:18:58;7.60;99.90
10282;DHT22;5186;59.472;18.048;2023-04-19T07:21:23;7.60;99.90
10282;DHT22;5186;59.472;18.048;2023-04-19T07:23:51;7.70;99.90
10282;DHT22;5186;59.472;18.048;2023-04-19T07:26:16;7.80;99.90
10282;DHT22;5186;59.472;18.048;2023-04-19T07:28:42;7.80;99.90
10282;DHT22;5186;59.472;18.048;2023-04-19T07:31:16;7.90;99.90
10282;DHT22;5186;59.472;18.048;2023-04-19T07:33:42;8.00;99.90
10282;DHT22;5186;59.472;18.048;2023-04-19T07:36:08;8.10;99.90
10282;DHT22;5186;59.472;18.048;2023-04-19T07:38:34;8.20;99.90
10282;DHT22;5186;59.472;18.048;2023-04-19T07:41:00;8.30;99.90
10282;DHT22;5186;59.472;18.048;2023-04-19T07:43:25;8.40;99.90
10282;DHT22;5186;59.472;18.048;2023-04-19T07:45:53;8.50;99.90
10282;DHT22;5186;59.472;18.048;2023-04-19T07:48:18;8.60;99.90
10282;DHT22;5186;59.472;18.048;2023-04-19T07:50:44;8.60;99.90
10282;DHT22;5186;59.472;18.048;2023-04-19T07:53:10;8.70;99.90
10282;DHT22;5186;59.472;18.048;2023-04-19T07:55:35;8.80;99.90
10282;DHT22;5186;59.472;18.048;2023-04-19T07:58:01;8.90;99.90
10282;DHT22;5186;59.472;18.048;2023-04-19T08:00:27;9.00;99.90
10282;DHT22;5186;59.472;18.048;2023-04-19T08:02:55;9.10;99.90
10282;DHT22;5186;59.472;18.048;2023-04-19T08:05:21;9.20;99.90
10282;DHT22;5186;59.472;18.048;2023-04-19T08:07:47;9.20;99.90
10282;DHT22;5186;59.472;18.048;2023-04-19T08:10:13;9.30;99.90
10282;DHT22;5186;59.472;18.048;2023-04-19T08:12:39;9.40;99.90
10282;DHT22;5186;59.472;18.048;2023-04-19T08:15:06;9.50;99.90
10282;DHT22;5186;59.472;18.048;2023-04-19T08:17:33;9.60;99.90
10282;DHT22;5186;59.472;18.048;2023-04-19T08:19:59;9.80;99.90
10282;DHT22;5186;59.472;18.048;2023-04-19T08:22:24;9.90;99.90
10282;DHT22;5186;59.472;18.048;2023-04-19T08:24:51;10.00;99.90
10282;DHT22;5186;59.472;18.048;2023-04-19T08:27:17;10.10;99.90
10282;DHT22;5186;59.472;18.048;2023-04-19T08:29:43;10.20;99.90
10282;DHT22;5186;59.472;18.048;2023-04-19T08:32:09;10.40;99.90
10282;DHT22;5186;59.472;18.048;2023-04-19T08:34:35;10.50;99.90
10282;DHT22;5186;59.472;18.048;2023-04-19T08:37:02;10.50;99.90
10282;DHT22;5186;59.472;18.048;2023-04-19T08:39:29;10.60;99.90
10282;DHT22;5186;59.472;18.048;2023-04-19T08:41:55;10.70;99.90
10282;DHT22;5186;59.472;18.048;2023-04-19T08:44:24;10.70;99.90
10282;DHT22;5186;59.472;18.048;2023-04-19T08:46:50;10.80;99.90
10282;DHT22;5186;59.472;18.048;2023-04-19T08:49:16;10.80;99.90
10282;DHT22;5186;59.472;18.048;2023-04-19T08:51:48;10.90;99.90
10282;DHT22;5186;59.472;18.048;2023-04-19T08:54:14;11.00;99.90
10282;DHT22;5186;59.472;18.048;2023-04-19T08:56:41;11.10;99.90
10282;DHT22;5186;59.472;18.048;2023-04-19T08:59:06;11.10;99.90
10282;DHT22;5186;59.472;18.048;2023-04-19T09:01:32;11.10;99.90
10282;DHT22;5186;59.472;18.048;2023-04-19T09:03:57;11.20;99.90
10282;DHT22;5186;59.472;18.048;2023-04-19T09:06:23;11.30;99.90
10282;DHT22;5186;59.472;18.048;2023-04-19T09:08:48;11.40;99.90
10282;DHT22;5186;59.472;18.048;2023-04-19T09:11:16;11.40;99.90
10282;DHT22;5186;59.472;18.048;2023-04-19T09:13:44;11.50;99.90
10282;DHT22;5186;59.472;18.048;2023-04-19T09:16:23;11.60;99.90
10282;DHT22;5186;59.472;18.048;2023-04-19T09:18:58;11.60;99.90
10282;DHT22;5186;59.472;18.048;2023-04-19T09:21:29;11.60;99.90
10282;DHT22;5186;59.472;18.048;2023-04-19T09:23:56;11.70;99.90
10282;DHT22;5186;59.472;18.048;2023-04-19T09:26:22;11.70;99.90
10282;DHT22;5186;59.472;18.048;2023-04-19T09:29:04;11.80;99.90
10282;DHT22;5186;59.472;18.048;2023-04-19T09:31:34;11.90;99.90
10282;DHT22;5186;59.472;18.048;2023-04-19T09:34:14;11.90;99.90
10282;DHT22;5186;59.472;18.048;2023-04-19T09:36:40;11.90;99.90
10282;DHT22;5186;59.472;18.048;2023-04-19T09:39:06;12.00;99.90
10282;DHT22;5186;59.472;18.048;2023-04-19T09:41:32;12.00;99.90
10282;DHT22;5186;59.472;18.048;2023-04-19T09:44:11;12.00;99.90
10282;DHT22;5186;59.472;18.048;2023-04-19T09:46:40;12.10;99.90
10282;DHT22;5186;59.472;18.048;2023-04-19T09:51:42;12.20;99.90
10282;DHT22;5186;59.472;18.048;2023-04-19T09:54:10;12.20;99.90
10282;DHT22;5186;59.472;18.048;2023-04-19T09:56:36;12.20;99.90
10282;DHT22;5186;59.472;18.048;2023-04-19T09:59:06;12.20;99.90
10282;DHT22;5186;59.472;18.048;2023-04-19T10:01:45;12.30;99.90
10282;DHT22;5186;59.472;18.048;2023-04-19T10:04:13;12.30;99.90
10282;DHT22;5186;59.472;18.048;2023-04-19T10:06:39;12.40;99.90
10282;DHT22;5186;59.472;18.048;2023-04-19T10:09:06;12.40;99.90
10282;DHT22;5186;59.472;18.048;2023-04-19T10:11:34;12.40;99.90
10282;DHT22;5186;59.472;18.048;2023-04-19T10:14:07;12.50;99.90
10282;DHT22;5186;59.472;18.048;2023-04-19T10:16:34;12.40;99.90
10282;DHT22;5186;59.472;18.048;2023-04-19T10:19:08;12.50;99.90
10282;DHT22;5186;59.472;18.048;2023-04-19T10:21:35;12.50;99.90
10282;DHT22;5186;59.472;18.048;2023-04-19T10:24:01;12.50;99.90
10282;DHT22;5186;59.472;18.048;2023-04-19T10:26:28;12.50;99.90
10282;DHT22;5186;59.472;18.048;2023-04-19T10:28:54;12.60;99.90
10282;DHT22;5186;59.472;18.048;2023-04-19T10:31:26;12.50;99.90
10282;DHT22;5186;59.472;18.048;2023-04-19T10:33:51;12.60;99.90
10282;DHT22;5186;59.472;18.048;2023-04-19T10:36:18;12.60;99.90
10282;DHT22;5186;59.472;18.048;2023-04-19T10:41:19;12.70;99.90
10282;DHT22;5186;59.472;18.048;2023-04-19T10:43:47;12.70;99.90
10282;DHT22;5186;59.472;18.048;2023-04-19T10:48:59;12.70;99.90
10282;DHT22;5186;59.472;18.048;2023-04-19T10:51:38;12.70;99.90
10282;DHT22;5186;59.472;18.048;2023-04-19T10:54:08;12.70;99.90
10282;DHT22;5186;59.472;18.048;2023-04-19T11:01:38;12.70;99.90
10282;DHT22;5186;59.472;18.048;2023-04-19T11:04:05;12.80;99.90
10282;DHT22;5186;59.472;18.048;2023-04-19T11:06:35;12.80;99.90
10282;DHT22;5186;59.472;18.048;2023-04-19T11:09:01;12.90;99.90
10282;DHT22;5186;59.472;18.048;2023-04-19T11:11:35;12.90;99.90
10282;DHT22;5186;59.472;18.048;2023-04-19T11:14:02;12.90;99.90
10282;DHT22;5186;59.472;18.048;2023-04-19T11:16:31;13.00;99.90
10282;DHT22;5186;59.472;18.048;2023-04-19T11:18:57;13.00;99.90
10282;DHT22;5186;59.472;18.048;2023-04-19T11:21:22;13.00;99.90
10282;DHT22;5186;59.472;18.048;2023-04-19T11:23:55;13.10;99.90
10282;DHT22;5186;59.472;18.048;2023-04-19T11:26:29;13.10;99.90
10282;DHT22;5186;59.472;18.048;2023-04-19T11:28:55;13.10;99.90
10282;DHT22;5186;59.472;18.048;2023-04-19T11:31:21;13.00;99.90
10282;DHT22;5186;59.472;18.048;2023-04-19T11:33:47;13.10;99.90
10282;DHT22;5186;59.472;18.048;2023-04-19T11:36:13;13.10;99.90
10282;DHT22;5186;59.472;18.048;2023-04-19T11:38:38;13.10;99.90
10282;DHT22;5186;59.472;18.048;2023-04-19T11:41:04;13.20;99.90
10282;DHT22;5186;59.472;18.048;2023-04-19T11:43:36;13.30;99.90
10282;DHT22;5186;59.472;18.048;2023-04-19T11:46:09;13.20;99.90
10282;DHT22;5186;59.472;18.048;2023-04-19T11:48:36;13.20;99.90
10282;DHT22;5186;59.472;18.048;2023-04-19T11:51:02;13.20;99.90
10282;DHT22;5186;59.472;18.048;2023-04-19T11:53:29;13.20;99.90
10282;DHT22;5186;59.472;18.048;2023-04-19T11:56:04;13.20;99.90
10282;DHT22;5186;59.472;18.048;2023-04-19T11:58:44;13.20;99.90
10282;DHT22;5186;59.472;18.048;2023-04-19T12:01:14;13.30;99.90
10282;DHT22;5186;59.472;18.048;2023-04-19T12:03:50;13.30;99.90
10282;DHT22;5186;59.472;18.048;2023-04-19T12:06:26;13.30;99.90
10282;DHT22;5186;59.472;18.048;2023-04-19T12:08:53;13.50;99.90
10282;DHT22;5186;59.472;18.048;2023-04-19T12:11:22;13.50;99.90
10282;DHT22;5186;59.472;18.048;2023-04-19T12:14:07;13.40;99.90
10282;DHT22;5186;59.472;18.048;2023-04-19T12:16:33;13.40;99.90
10282;DHT22;5186;59.472;18.048;2023-04-19T12:19:16;13.40;99.90
10282;DHT22;5186;59.472;18.048;2023-04-19T12:21:42;13.40;99.90
10282;DHT22;5186;59.472;18.048;2023-04-19T12:24:08;13.40;99.90
10282;DHT22;5186;59.472;18.048;2023-04-19T12:26:34;13.50;99.90
10282;DHT22;5186;59.472;18.048;2023-04-19T12:29:01;13.50;99.90
10282;DHT22;5186;59.472;18.048;2023-04-19T12:31:27;13.60;99.90
10282;DHT22;5186;59.472;18.048;2023-04-19T12:33:54;13.50;99.90
10282;DHT22;5186;59.472;18.048;2023-04-19T12:36:20;13.60;99.90
10282;DHT22;5186;59.472;18.048;2023-04-19T12:38:46;13.60;99.90
10282;DHT22;5186;59.472;18.048;2023-04-19T12:41:12;13.60;99.90
10282;DHT22;5186;59.472;18.048;2023-04-19T12:43:37;13.60;99.90
10282;DHT22;5186;59.472;18.048;2023-04-19T12:46:04;13.60;99.90
10282;DHT22;5186;59.472;18.048;2023-04-19T12:48:29;13.60;99.90
10282;DHT22;5186;59.472;18.048;2023-04-19T12:50:55;13.60;99.90
10282;DHT22;5186;59.472;18.048;2023-04-19T12:53:20;13.70;99.90
10282;DHT22;5186;59.472;18.048;2023-04-19T12:55:48;13.70;99.90
10282;DHT22;5186;59.472;18.048;2023-04-19T12:58:18;13.60;99.90
10282;DHT22;5186;59.472;18.048;2023-04-19T13:00:45;13.70;99.90
10282;DHT22;5186;59.472;18.048;2023-04-19T13:03:11;13.60;99.90
10282;DHT22;5186;59.472;18.048;2023-04-19T13:05:37;13.60;99.90
10282;DHT22;5186;59.472;18.048;2023-04-19T13:08:03;13.60;99.90
10282;DHT22;5186;59.472;18.048;2023-04-19T13:10:28;13.60;99.90
10282;DHT22;5186;59.472;18.048;2023-04-19T13:12:54;13.50;99.90
10282;DHT22;5186;59.472;18.048;2023-04-19T13:15:20;13.60;99.90
10282;DHT22;5186;59.472;18.048;2023-04-19T13:17:46;13.60;99.90
10282;DHT22;5186;59.472;18.048;2023-04-19T13:20:11;13.60;99.90
10282;DHT22;5186;59.472;18.048;2023-04-19T13:22:37;13.60;99.90
10282;DHT22;5186;59.472;18.048;2023-04-19T13:25:03;13.60;99.90
10282;DHT22;5186;59.472;18.048;2023-04-19T13:27:29;13.70;99.90
10282;DHT22;5186;59.472;18.048;2023-04-19T13:29:55;13.70;99.90
10282;DHT22;5186;59.472;18.048;2023-04-19T13:32:21;13.70;99.90
10282;DHT22;5186;59.472;18.048;2023-04-19T13:34:47;13.70;99.90
10282;DHT22;5186;59.472;18.048;2023-04-19T13:37:12;13.70;99.90
10282;DHT22;5186;59.472;18.048;2023-04-19T13:39:38;13.70;99.90
10282;DHT22;5186;59.472;18.048;2023-04-19T13:42:04;13.70;99.90
10282;DHT22;5186;59.472;18.048;2023-04-19T13:44:30;13.80;99.90
10282;DHT22;5186;59.472;18.048;2023-04-19T13:46:56;13.80;99.90
10282;DHT22;5186;59.472;18.048;2023-04-19T13:49:22;13.80;99.50
10282;DHT22;5186;59.472;18.048;2023-04-19T13:51:47;13.70;99.60
10282;DHT22;5186;59.472;18.048;2023-04-19T13:54:13;13.70;99.80
10282;DHT22;5186;59.472;18.048;2023-04-19T13:56:41;13.70;99.90
10282;DHT22;5186;59.472;18.048;2023-04-19T13:59:07;13.80;99.90
10282;DHT22;5186;59.472;18.048;2023-04-19T14:01:32;13.70;99.50
10282;DHT22;5186;59.472;18.048;2023-04-19T14:03:58;13.80;99.80
10282;DHT22;5186;59.472;18.048;2023-04-19T14:06:24;13.80;99.90
10282;DHT22;5186;59.472;18.048;2023-04-19T14:08:49;13.70;99.80
10282;DHT22;5186;59.472;18.048;2023-04-19T14:11:15;13.80;99.80
10282;DHT22;5186;59.472;18.048;2023-04-19T14:13:40;13.80;99.80
10282;DHT22;5186;59.472;18.048;2023-04-19T14:16:06;13.80;99.80
10282;DHT22;5186;59.472;18.048;2023-04-19T14:18:32;13.80;99.50
10282;DHT22;5186;59.472;18.048;2023-04-19T14:20:57;13.80;99.20
10282;DHT22;5186;59.472;18.048;2023-04-19T14:23:23;13.70;99.20
10282;DHT22;5186;59.472;18.048;2023-04-19T14:25:48;13.80;99.30
10282;DHT22;5186;59.472;18.048;2023-04-19T14:28:14;13.80;99.50
10282;DHT22;5186;59.472;18.048;2023-04-19T14:30:40;13.90;99.30
10282;DHT22;5186;59.472;18.048;2023-04-19T14:33:05;13.80;98.80
10282;DHT22;5186;59.472;18.048;2023-04-19T14:35:31;13.90;98.90
10282;DHT22;5186;59.472;18.048;2023-04-19T14:37:56;13.80;98.40
10282;DHT22;5186;59.472;18.048;2023-04-19T14:40:22;13.80;98.30
10282;DHT22;5186;59.472;18.048;2023-04-19T14:42:48;13.80;98.30
10282;DHT22;5186;59.472;18.048;2023-04-19T14:45:13;13.80;98.50
10282;DHT22;5186;59.472;18.048;2023-04-19T14:47:39;13.80;98.60
10282;DHT22;5186;59.472;18.048;2023-04-19T14:50:05;13.80;98.60
10282;DHT22;5186;59.472;18.048;2023-04-19T14:52:31;13.80;98.50
10282;DHT22;5186;59.472;18.048;2023-04-19T14:54:56;13.90;98.50
10282;DHT22;5186;59.472;18.048;2023-04-19T14:57:24;13.80;98.10
10282;DHT22;5186;59.472;18.048;2023-04-19T14:59:53;13.80;98.20
10282;DHT22;5186;59.472;18.048;2023-04-19T15:02:25;13.80;98.30
10282;DHT22;5186;59.472;18.048;2023-04-19T15:04:51;13.80;98.00
10282;DHT22;5186;59.472;18.048;2023-04-19T15:07:16;13.80;98.00
10282;DHT22;5186;59.472;18.048;2023-04-19T15:09:42;13.80;98.10
10282;DHT22;5186;59.472;18.048;2023-04-19T15:12:07;13.80;98.30
10282;DHT22;5186;59.472;18.048;2023-04-19T15:14:33;13.80;98.20
10282;DHT22;5186;59.472;18.048;2023-04-19T15:16:59;13.80;98.50
10282;DHT22;5186;59.472;18.048;2023-04-19T15:19:24;13.90;98.50
10282;DHT22;5186;59.472;18.048;2023-04-19T15:21:50;13.90;98.30
10282;DHT22;5186;59.472;18.048;2023-04-19T15:24:15;13.90;98.10
10282;DHT22;5186;59.472;18.048;2023-04-19T15:26:41;13.90;98.10
10282;DHT22;5186;59.472;18.048;2023-04-19T15:29:07;13.90;98.10
10282;DHT22;5186;59.472;18.048;2023-04-19T15:31:32;13.80;97.70
10282;DHT22;5186;59.472;18.048;2023-04-19T15:34:01;13.80;97.60
10282;DHT22;5186;59.472;18.048;2023-04-19T15:36:27;13.80;97.40
10282;DHT22;5186;59.472;18.048;2023-04-19T15:38:52;13.80;97.50
10282;DHT22;5186;59.472;18.048;2023-04-19T15:41:18;13.80;97.30
10282;DHT22;5186;59.472;18.048;2023-04-19T15:43:44;13.80;97.80
10282;DHT22;5186;59.472;18.048;2023-04-19T15:46:13;13.80;97.90
10282;DHT22;5186;59.472;18.048;2023-04-19T15:48:39;13.80;97.70